Time;durP1;ratioP1;P1;durP2;ratioP2;P2;SDS_P1;SDS_P2;PMS_P1;PMS_P2;Temp;Humidity;BMP_temperature;BMP_pressure;BME280_temperature;BME280_humidity;BME280_pressure;Samples;Min_cycle;Max_cycle;Signal;HPM_P1;HPM_P2
2022/11/17 07:06:35;;;;;;;6.10;1.80;;;;;;;10.22;100.00;98307.84;5333583;27;1320131;-86
2022/11/17 07:09:06;;;;;;;3.78;1.83;;;;;;;10.20;100.00;98304.66;5351639;28;20027;-86
2022/11/17 07:11:38;;;;;;;4.93;1.58;;;;;;;10.23;100.00;98305.91;5349374;27;20081;-85
2022/11/17 07:14:09;;;;;;;3.40;1.73;;;;;;;10.22;100.00;98309.81;5349256;28;20072;-88
2022/11/17 07:16:41;;;;;;;3.92;1.45;;;;;;;10.18;100.00;98317.22;5347015;28;20028;-86
2022/11/17 07:19:13;;;;;;;6.93;1.83;;;;;;;10.20;100.00;98320.44;5345029;27;20024;-87
2022/11/17 07:21:44;;;;;;;8.55;3.00;;;;;;;10.21;100.00;98319.28;5347063;27;20056;-86
2022/11/17 07:24:15;;;;;;;3.28;1.30;;;;;;;10.16;100.00;98327.84;5347272;28;20023;-86
2022/11/17 07:26:46;;;;;;;2.60;1.30;;;;;;;10.17;100.00;98326.69;5344334;28;20032;-86
2022/11/17 07:29:18;;;;;;;5.00;1.92;;;;;;;10.14;100.00;98327.38;5344948;28;20019;-86
2022/11/17 07:31:49;;;;;;;2.35;1.30;;;;;;;10.12;100.00;98329.69;5345070;28;20502;-87
2022/11/17 07:34:20;;;;;;;3.83;1.48;;;;;;;10.15;100.00;98335.34;5344863;28;20465;-86
2022/11/17 07:36:54;;;;;;;2.72;1.58;;;;;;;10.16;100.00;98334.19;5344905;27;20478;-86
2022/11/17 07:39:25;;;;;;;3.53;1.70;;;;;;;10.06;100.00;98342.16;5346624;27;20483;-86
2022/11/17 07:41:57;;;;;;;4.78;1.23;;;;;;;10.10;100.00;98345.84;5348060;28;20046;-87
2022/11/17 07:44:28;;;;;;;3.15;1.48;;;;;;;10.12;100.00;98329.69;5348561;28;20039;-85
2022/11/17 07:47:00;;;;;;;1.90;1.30;;;;;;;10.09;100.00;98347.00;5345449;28;20072;-85
2022/11/17 07:49:31;;;;;;;4.13;1.60;;;;;;;10.09;100.00;98355.31;5352948;27;20073;-86
2022/11/17 07:52:02;;;;;;;4.85;1.50;;;;;;;10.08;100.00;98351.75;5362186;28;20052;-84
2022/11/17 07:54:34;;;;;;;3.72;1.13;;;;;;;10.09;100.00;98356.09;5362496;28;20008;-84
2022/11/17 07:57:05;;;;;;;4.10;1.98;;;;;;;10.13;100.00;98353.47;5363214;27;20039;-85
2022/11/17 07:59:37;;;;;;;1.42;0.90;;;;;;;10.13;100.00;98362.59;5364249;27;20023;-85
2022/11/17 08:02:08;;;;;;;3.03;1.40;;;;;;;10.14;100.00;98360.63;5364481;28;20031;-84
2022/11/17 08:04:40;;;;;;;2.47;1.15;;;;;;;10.16;100.00;98363.84;5361967;27;20058;-85
2022/11/17 08:07:14;;;;;;;4.30;1.35;;;;;;;10.14;100.00;98363.38;5357821;28;20035;-84
2022/11/17 08:09:45;;;;;;;2.55;1.30;;;;;;;10.13;100.00;98370.09;5352892;27;20099;-85
2022/11/17 08:12:17;;;;;;;2.00;1.35;;;;;;;10.16;100.00;98386.81;5352413;28;20050;-85
2022/11/17 08:14:48;;;;;;;3.20;1.23;;;;;;;10.13;100.00;98378.41;5353430;27;20053;-85
2022/11/17 08:17:20;;;;;;;3.08;1.77;;;;;;;10.19;100.00;98390.84;5337873;27;20106;-85
2022/11/17 08:19:54;;;;;;;4.88;2.55;;;;;;;10.11;100.00;98389.00;5338043;28;20027;-76
2022/11/17 08:22:25;;;;;;;1.92;1.48;;;;;;;10.08;100.00;98384.16;5335255;28;20023;-82
2022/11/17 08:25:02;;;;;;;5.47;1.40;;;;;;;10.08;100.00;98393.28;5342782;28;20134;-85
2022/11/17 08:27:34;;;;;;;5.70;1.33;;;;;;;10.05;100.00;98395.91;5332210;28;20092;-83
2022/11/17 08:30:06;;;;;;;2.55;1.40;;;;;;;10.18;100.00;98400.31;5332008;28;20023;-84
2022/11/17 08:32:37;;;;;;;4.28;1.92;;;;;;;10.17;100.00;98395.91;5332306;28;20049;-85
2022/11/17 08:35:12;;;;;;;4.45;1.20;;;;;;;10.16;100.00;98399.84;5330210;28;20049;-85
2022/11/17 08:37:43;;;;;;;2.00;1.33;;;;;;;10.16;100.00;98399.84;5332019;28;20032;-86
2022/11/17 08:40:14;;;;;;;3.95;1.40;;;;;;;10.11;100.00;98400.88;5330893;28;20035;-86
2022/11/17 08:42:52;;;;;;;3.58;1.17;;;;;;;10.13;100.00;98409.66;5337360;28;20034;-84
2022/11/17 08:45:24;;;;;;;4.85;1.50;;;;;;;10.09;100.00;98407.94;5345206;28;20027;-84
2022/11/17 08:47:56;;;;;;;3.15;1.33;;;;;;;10.09;100.00;98408.72;5346890;28;20030;-87
2022/11/17 08:50:27;;;;;;;3.28;1.38;;;;;;;10.11;100.00;98411.16;5334007;28;20042;-81
2022/11/17 08:52:58;;;;;;;2.33;1.25;;;;;;;10.17;100.00;98416.09;5328941;28;20096;-82
2022/11/17 08:55:30;;;;;;;3.17;1.10;;;;;;;10.18;100.00;98414.97;5338917;28;20019;-85
2022/11/17 08:58:08;;;;;;;3.63;1.30;;;;;;;10.19;100.00;98419.34;5343542;28;20043;-87
2022/11/17 09:00:40;;;;;;;2.15;1.05;;;;;;;10.19;100.00;98416.56;5338093;28;20015;-83
2022/11/17 09:03:11;;;;;;;3.88;1.42;;;;;;;10.19;100.00;98418.53;5332700;28;20031;-74
2022/11/17 09:05:45;;;;;;;4.68;1.33;;;;;;;10.13;100.00;98425.47;5327189;28;20044;-84
2022/11/17 09:08:20;;;;;;;5.43;1.23;;;;;;;10.13;100.00;98422.72;5346048;28;20035;-82
2022/11/17 09:10:51;;;;;;;2.45;1.05;;;;;;;10.09;100.00;98424.53;5339111;28;20054;-79
2022/11/17 09:13:23;;;;;;;3.92;1.45;;;;;;;10.09;100.00;98435.63;5347753;27;20031;-86
2022/11/17 09:15:54;;;;;;;3.25;1.15;;;;;;;10.09;100.00;98435.63;5341381;28;20110;-85
2022/11/17 09:18:25;;;;;;;1.45;1.30;;;;;;;10.11;100.00;98439.66;5337044;28;20035;-87
2022/11/17 09:21:02;;;;;;;2.60;1.20;;;;;;;10.06;100.00;98442.66;5339351;28;20031;-87
2022/11/17 09:23:33;;;;;;;3.17;1.25;;;;;;;10.07;100.00;98438.72;5338086;28;20129;-87
2022/11/17 09:26:09;;;;;;;3.38;1.50;;;;;;;10.08;100.00;98445.91;5336135;28;20048;-87
2022/11/17 09:28:41;;;;;;;;;;;;;;;10.19;100.00;98447.03;5336102;28;20034;-87
2022/11/17 09:31:18;;;;;;;2.95;1.42;;;;;;;10.14;100.00;98452.00;5336612;28;19919;-83
2022/11/17 09:33:58;;;;;;;3.35;1.40;;;;;;;10.15;100.00;98448.91;5329041;28;20028;-76
2022/11/17 09:36:29;;;;;;;3.30;1.30;;;;;;;10.18;100.00;98455.72;5326874;28;20080;-75
2022/11/17 09:39:01;;;;;;;2.85;1.10;;;;;;;10.16;100.00;98461.59;5325674;28;20035;-76
2022/11/17 09:41:37;;;;;;;3.05;1.05;;;;;;;10.10;100.00;98467.69;5325334;28;20035;-76
2022/11/17 09:44:27;;;;;;;2.97;1.15;;;;;;;10.23;100.00;98472.13;5326255;28;20027;-89
2022/11/17 09:47:20;;;;;;;5.97;1.75;;;;;;;10.28;100.00;98466.38;5327793;28;20397;-89
2022/11/17 09:49:54;;;;;;;4.80;1.40;;;;;;;10.35;100.00;98471.31;5327992;28;20051;-89
2022/11/17 09:52:50;;;;;;;3.10;1.20;;;;;;;10.30;100.00;98463.25;5327105;28;20032;-83
2022/11/17 09:55:48;;;;;;;2.15;1.20;;;;;;;10.36;100.00;98476.53;5316776;28;20024;-90
2022/11/17 09:58:25;;;;;;;2.90;1.27;;;;;;;10.37;100.00;98474.56;5310882;28;20032;-87
2022/11/17 10:00:57;;;;;;;2.90;1.17;;;;;;;10.41;100.00;98481.03;5309203;28;20028;-91
2022/11/17 10:03:32;;;;;;;3.50;1.52;;;;;;;10.39;100.00;98484.16;5327555;28;20439;-90
2022/11/17 10:06:22;;;;;;;2.53;1.23;;;;;;;10.43;100.00;98487.84;5331049;28;20494;-90
2022/11/17 10:09:15;;;;;;;5.80;1.38;;;;;;;10.42;100.00;98494.53;5331922;28;20020;-91
2022/11/17 10:11:47;;;;;;;4.53;1.60;;;;;;;10.45;100.00;98502.16;5328068;28;20054;-89
2022/11/17 10:14:22;;;;;;;2.85;1.20;;;;;;;10.48;100.00;98503.44;5327662;28;20019;-89
2022/11/17 10:16:58;;;;;;;5.97;1.25;;;;;;;10.53;100.00;98496.84;5327122;28;20019;-80
2022/11/17 10:19:37;;;;;;;3.60;1.15;;;;;;;10.57;100.00;98506.91;5330086;28;20095;-91
2022/11/17 10:22:17;;;;;;;2.58;1.30;;;;;;;10.59;100.00;98503.78;5329751;28;20462;-91
2022/11/17 10:24:53;;;;;;;5.07;1.70;;;;;;;10.66;100.00;98510.38;5331611;28;20035;-90
2022/11/17 10:27:31;;;;;;;3.42;1.40;;;;;;;10.77;99.21;98509.91;5333158;28;20054;-91
2022/11/17 10:30:13;;;;;;;2.67;1.00;;;;;;;10.79;98.94;98522.25;5335873;28;20034;-90
2022/11/17 10:32:51;;;;;;;4.95;1.20;;;;;;;10.83;98.81;98527.91;5335290;28;20118;-90
2022/11/17 10:35:23;;;;;;;3.17;1.40;;;;;;;10.91;97.70;98526.16;5338584;28;20083;-89
2022/11/17 10:38:05;;;;;;;2.85;1.27;;;;;;;10.95;98.28;98522.34;5329368;28;20102;-78
2022/11/17 10:40:37;;;;;;;2.47;1.20;;;;;;;11.00;97.98;98529.63;5329755;28;20031;-84
2022/11/17 10:43:11;;;;;;;3.38;1.45;;;;;;;10.95;96.85;98539.00;5327097;28;20652;-84
2022/11/17 10:46:18;;;;;;;3.70;1.58;;;;;;;11.02;96.31;98533.69;5327943;28;20065;-83
2022/11/17 10:48:59;;;;;;;2.30;1.27;;;;;;;10.98;95.93;98537.50;5242628;28;20029;-86
2022/11/17 10:51:32;;;;;;;3.55;1.10;;;;;;;10.99;96.27;98539.09;5324967;28;20028;-81
2022/11/17 10:54:15;;;;;;;2.40;1.20;;;;;;;11.03;95.87;98543.59;5342216;28;20026;-87
2022/11/17 10:56:54;;;;;;;2.42;1.20;;;;;;;11.03;94.98;98534.47;5344704;28;20042;-86
2022/11/17 10:59:30;;;;;;;3.25;1.00;;;;;;;11.07;95.79;98535.41;5314951;28;20103;-82
2022/11/17 11:02:38;;;;;;;3.47;1.23;;;;;;;11.08;95.29;98545.34;5325541;28;20015;-80
2022/11/17 11:05:15;;;;;;;1.23;1.00;;;;;;;11.03;96.55;98545.56;5237483;28;20508;-83
2022/11/17 11:07:47;;;;;;;4.60;1.70;;;;;;;11.00;96.68;98546.28;5309476;28;20478;-86
2022/11/17 11:10:33;;;;;;;6.38;1.30;;;;;;;10.99;97.89;98555.72;5325844;28;20026;-84
2022/11/17 11:13:23;;;;;;;;;;;;;;;11.07;98.31;98561.19;5325962;28;20118;-86
2022/11/17 11:15:54;;;;;;;3.35;1.30;;;;;;;10.99;98.64;98548.25;5324778;28;19923;-86
2022/11/17 11:18:28;;;;;;;2.40;1.73;;;;;;;10.98;98.36;98554.94;5324230;28;20429;-85
2022/11/17 11:21:15;;;;;;;1.88;0.90;;;;;;;10.98;97.37;98554.13;5326178;28;20085;-86
2022/11/17 11:24:08;;;;;;;4.40;1.20;;;;;;;10.96;97.16;98561.97;5326853;28;20036;-86
2022/11/17 11:26:49;;;;;;;2.85;1.30;;;;;;;10.95;95.93;98565.94;5323110;28;20019;-87
2022/11/17 11:29:49;;;;;;;3.50;1.05;;;;;;;10.97;95.16;98564.44;5325292;28;20110;-90
2022/11/17 11:32:40;;;;;;;2.67;1.67;;;;;;;10.96;95.34;98578.63;5327891;28;20254;-87
2022/11/17 11:35:31;;;;;;;3.22;1.40;;;;;;;10.98;95.88;98571.56;5323078;28;20481;-86
2022/11/17 11:38:40;;;;;;;3.85;1.30;;;;;;;10.94;94.19;98579.00;5326204;28;20416;-90
2022/11/17 11:41:48;;;;;;;2.67;1.35;;;;;;;10.98;94.96;98581.88;5328773;28;20040;-88
2022/11/17 11:44:34;;;;;;;5.38;1.50;;;;;;;10.95;95.63;98582.56;5325895;28;20043;-80
2022/11/17 11:47:30;;;;;;;3.38;1.10;;;;;;;10.97;96.21;98586.59;5326926;28;20039;-77
2022/11/17 11:50:25;;;;;;;3.67;1.60;;;;;;;10.98;95.10;98581.88;5320528;28;20051;-86
2022/11/17 11:53:03;;;;;;;2.97;1.33;;;;;;;10.97;94.22;98589.38;5329073;28;20024;-85
2022/11/17 11:55:36;;;;;;;3.47;1.35;;;;;;;11.00;92.96;98588.69;5313695;28;20065;-86
2022/11/17 11:58:18;;;;;;;5.25;1.60;;;;;;;11.03;92.21;98590.75;5325227;28;20501;-88
2022/11/17 12:00:52;;;;;;;3.88;1.17;;;;;;;11.03;92.95;98590.75;5328115;28;20050;-88
2022/11/17 12:03:42;;;;;;;1.87;1.17;;;;;;;11.05;91.62;98599.53;5328935;27;20027;-84
2022/11/17 12:06:40;;;;;;;3.13;1.73;;;;;;;11.09;92.56;98592.16;5322603;28;20051;-84
2022/11/17 12:09:17;;;;;;;8.68;2.00;;;;;;;11.06;91.88;98595.59;5326243;28;20051;-87
2022/11/17 12:12:00;;;;;;;4.07;0.90;;;;;;;11.03;92.00;98592.72;5328031;28;20067;-80
2022/11/17 12:14:34;;;;;;;4.43;1.13;;;;;;;11.08;91.95;98601.63;5327128;28;20036;-90
2022/11/17 12:17:22;;;;;;;2.47;1.48;;;;;;;11.09;92.65;98596.88;5328234;28;20110;-87
2022/11/17 12:20:01;;;;;;;2.28;1.30;;;;;;;11.06;92.40;98600.34;5335516;28;20020;-87
2022/11/17 12:22:32;;;;;;;3.42;1.20;;;;;;;11.08;92.16;98609.94;5334826;28;20483;-84
2022/11/17 12:25:21;;;;;;;4.82;1.33;;;;;;;11.12;93.07;98606.47;5327750;28;20135;-78
2022/11/17 12:27:52;;;;;;;2.33;1.05;;;;;;;11.09;92.36;98610.75;5327442;28;20070;-78
2022/11/17 12:30:29;;;;;;;4.00;1.83;;;;;;;11.15;93.71;98619.66;5328208;28;20058;-90
2022/11/17 12:33:07;;;;;;;3.63;1.02;;;;;;;11.15;92.24;98612.16;5328387;28;20416;-85
2022/11/17 12:35:39;;;;;;;4.22;1.30;;;;;;;11.12;92.96;98615.63;5328693;28;20456;-88
2022/11/17 12:38:16;;;;;;;3.45;1.48;;;;;;;11.16;93.71;98621.28;5329945;28;20537;-86
2022/11/17 12:40:49;;;;;;;7.82;1.70;;;;;;;11.12;92.38;98615.63;5329378;28;20378;-78
2022/11/17 12:43:25;;;;;;;3.42;1.45;;;;;;;11.12;93.58;98618.41;5327000;28;20020;-79
2022/11/17 12:46:25;;;;;;;3.00;1.00;;;;;;;11.12;93.15;98625.88;5327018;28;20042;-78
2022/11/17 12:49:21;;;;;;;4.03;1.20;;;;;;;11.12;93.92;98629.50;5327427;28;20027;-78
2022/11/17 12:52:00;;;;;;;5.28;1.60;;;;;;;11.12;94.57;98631.44;5305216;28;20056;-78
2022/11/17 12:54:50;;;;;;;3.78;1.73;;;;;;;11.17;95.78;98623.72;5319437;28;20035;-78
2022/11/17 12:57:30;;;;;;;4.55;1.63;;;;;;;11.19;93.64;98628.88;5326453;28;20015;-78
2022/11/17 13:00:18;;;;;;;5.63;2.33;;;;;;;11.17;92.58;98626.47;5327247;28;20023;-79
2022/11/17 13:03:16;;;;;;;4.88;1.80;;;;;;;11.24;93.66;98629.47;5326733;28;20069;-77
2022/11/17 13:06:06;;;;;;;5.78;2.08;;;;;;;11.28;93.07;98635.94;5325915;28;20486;-78
2022/11/17 13:08:37;;;;;;;4.18;1.55;;;;;;;11.30;92.99;98636.41;5327461;28;20043;-86
2022/11/17 13:11:16;;;;;;;2.80;1.30;;;;;;;11.30;91.70;98638.38;5326959;28;20031;-86
2022/11/17 13:13:47;;;;;;;3.58;1.30;;;;;;;11.32;91.25;98638.81;5330215;28;20028;-90
2022/11/17 13:16:20;;;;;;;3.10;1.40;;;;;;;11.35;90.67;98629.00;5330496;28;20042;-88
2022/11/17 13:18:51;;;;;;;1.95;1.08;;;;;;;11.37;89.89;98632.22;5328017;28;20015;-79
2022/11/17 13:21:27;;;;;;;3.08;1.20;;;;;;;11.41;89.67;98636.75;5327167;28;20391;-81
2022/11/17 13:24:01;;;;;;;2.92;1.10;;;;;;;11.46;87.64;98647.59;5327286;28;20059;-86
2022/11/17 13:26:37;;;;;;;2.55;1.05;;;;;;;11.50;86.78;98653.25;5325805;28;20031;-81
2022/11/17 13:29:18;;;;;;;2.35;1.15;;;;;;;11.56;86.56;98660.19;5327549;28;20101;-84
2022/11/17 13:31:49;;;;;;;2.85;1.40;;;;;;;11.53;85.89;98663.69;5326889;28;20027;-84
2022/11/17 13:34:20;;;;;;;1.20;0.85;;;;;;;11.55;84.84;98661.34;5327486;28;20348;-85
2022/11/17 13:36:55;;;;;;;1.48;0.95;;;;;;;11.59;84.63;98667.03;5327331;28;20028;-86
2022/11/17 13:39:27;;;;;;;2.78;1.00;;;;;;;11.65;85.16;98679.50;5325878;28;20023;-87
2022/11/17 13:42:03;;;;;;;2.22;1.10;;;;;;;11.67;84.80;98668.84;5327974;28;20028;-86
2022/11/17 13:44:36;;;;;;;2.40;1.17;;;;;;;11.73;85.14;98665.50;5326802;28;20036;-86
2022/11/17 13:47:25;;;;;;;3.65;1.15;;;;;;;11.73;84.16;98671.06;5321123;28;20059;-86
2022/11/17 13:50:23;;;;;;;3.50;1.10;;;;;;;11.76;84.70;98683.44;5324645;28;20035;-80
2022/11/17 13:53:22;;;;;;;3.92;1.13;;;;;;;11.73;82.73;98684.94;5327458;28;20088;-84
2022/11/17 13:55:53;;;;;;;1.15;0.80;;;;;;;11.74;83.04;98667.09;5326338;28;20023;-81
2022/11/17 13:58:27;;;;;;;1.00;0.88;;;;;;;11.81;83.85;98668.47;5326452;27;20066;-85
2022/11/17 14:00:59;;;;;;;1.45;0.93;;;;;;;11.80;83.34;98686.31;5326038;28;20030;-84
2022/11/17 14:03:38;;;;;;;2.72;1.17;;;;;;;11.79;82.55;98676.38;5327981;28;20015;-84
2022/11/17 14:06:11;;;;;;;3.22;1.35;;;;;;;11.78;83.32;98680.28;5326971;28;20410;-88
2022/11/17 14:09:02;;;;;;;3.42;2.72;;;;;;;11.78;83.21;98680.28;5326442;28;20038;-87
2022/11/17 14:11:33;;;;;;;41.50;33.63;;;;;;;11.75;82.69;98687.34;5306134;28;20375;-86
2022/11/17 14:14:11;;;;;;;3.03;1.45;;;;;;;11.80;82.91;98680.75;5304856;28;20112;-81
2022/11/17 14:16:43;;;;;;;2.60;1.05;;;;;;;11.78;82.72;98683.06;5318123;28;20042;-81
2022/11/17 14:19:14;;;;;;;2.60;1.40;;;;;;;11.79;83.07;98693.03;5317657;28;20027;-88
2022/11/17 14:22:02;;;;;;;2.60;1.45;;;;;;;11.82;83.27;98695.91;5324650;28;20543;-85
2022/11/17 14:24:35;;;;;;;2.38;1.08;;;;;;;11.77;82.49;98695.34;5326876;28;20122;-80
2022/11/17 14:27:35;;;;;;;2.53;1.48;;;;;;;11.83;82.54;98703.06;5319420;28;20516;-79
2022/11/17 14:30:12;;;;;;;2.58;1.70;;;;;;;11.80;82.24;98697.41;5319521;28;20063;-79
2022/11/17 14:32:43;;;;;;;4.65;1.10;;;;;;;11.82;82.28;98697.88;5324260;28;20502;-79
2022/11/17 14:35:14;;;;;;;2.90;1.17;;;;;;;11.81;82.70;98699.00;5325385;28;20063;-86
2022/11/17 14:37:46;;;;;;;2.25;1.00;;;;;;;11.81;82.43;98696.25;5326703;28;20024;-85
2022/11/17 14:40:17;;;;;;;1.10;0.93;;;;;;;11.80;82.00;98700.19;5326953;28;20012;-82
2022/11/17 14:42:48;;;;;;;4.93;1.10;;;;;;;11.78;81.71;98705.28;5328104;28;20023;-83
2022/11/17 14:45:20;;;;;;;2.78;1.27;;;;;;;11.77;82.00;98706.44;5326854;28;20055;-88
2022/11/17 14:47:51;;;;;;;9.68;7.00;;;;;;;11.78;83.01;98716.38;5326915;28;20027;-82
2022/11/17 14:50:23;;;;;;;5.03;1.40;;;;;;;11.73;82.92;98718.25;5327048;28;20023;-84
2022/11/17 14:52:54;;;;;;;7.97;3.33;;;;;;;11.78;82.44;98724.72;5325307;28;20099;-85
2022/11/17 14:55:26;;;;;;;2.45;1.50;;;;;;;11.78;83.06;98728.28;5327740;28;20085;-83
2022/11/17 14:57:57;;;;;;;2.53;1.20;;;;;;;11.73;81.85;98729.38;5324652;28;20122;-86
2022/11/17 15:00:29;;;;;;;2.80;1.15;;;;;;;11.74;82.70;98736.53;5325048;28;20542;-85
2022/11/17 15:03:00;;;;;;;2.10;1.00;;;;;;;11.70;82.17;98737.56;5325613;28;20534;-81
2022/11/17 15:05:32;;;;;;;3.65;1.02;;;;;;;11.71;82.53;98740.00;5324714;28;20078;-80
2022/11/17 15:08:03;;;;;;;1.77;1.10;;;;;;;11.67;82.02;98744.63;5326801;28;20028;-82
2022/11/17 15:10:35;;;;;;;1.63;1.08;;;;;;;11.74;82.95;98746.81;5324423;28;20020;-80
2022/11/17 15:13:06;;;;;;;3.65;1.00;;;;;;;11.67;81.91;98741.84;5324537;28;20028;-82
2022/11/17 15:15:37;;;;;;;3.42;1.15;;;;;;;11.67;81.48;98747.41;5319468;28;20644;-82
2022/11/17 15:18:11;;;;;;;7.95;3.40;;;;;;;11.73;83.07;98742.41;5320495;28;20355;-82
2022/11/17 15:20:43;;;;;;;2.70;1.17;;;;;;;11.67;82.25;98747.41;5325653;28;20030;-83
2022/11/17 15:23:17;;;;;;;1.98;1.00;;;;;;;11.67;81.41;98746.59;5325046;28;20031;-85
2022/11/17 15:25:48;;;;;;;2.38;1.50;;;;;;;11.65;81.06;98754.47;5322270;28;20020;-76
2022/11/17 15:28:19;;;;;;;2.72;1.55;;;;;;;11.63;81.89;98757.59;5327803;28;20088;-74
2022/11/17 15:30:51;;;;;;;3.65;1.40;;;;;;;11.67;82.23;98758.50;5329872;28;20493;-81
2022/11/17 15:33:23;;;;;;;2.40;1.30;;;;;;;11.58;81.95;98757.00;5329657;28;20035;-83
2022/11/17 15:36:02;;;;;;;3.83;1.25;;;;;;;11.65;81.95;98760.81;5333658;28;20019;-84
2022/11/17 15:38:34;;;;;;;4.85;1.60;;;;;;;11.59;82.13;98764.19;5334125;28;20146;-85
2022/11/17 15:41:10;;;;;;;3.17;2.13;;;;;;;11.65;82.37;98765.56;5336285;28;20043;-84
2022/11/17 15:43:44;;;;;;;4.05;2.83;;;;;;;11.60;81.45;98768.56;5325996;28;20024;-76
2022/11/17 15:46:17;;;;;;;3.25;1.60;;;;;;;11.57;82.36;98767.31;5327917;28;20438;-77
2022/11/17 15:48:51;;;;;;;4.60;1.80;;;;;;;11.54;82.27;98774.34;5325403;28;20033;-86
2022/11/17 15:51:24;;;;;;;2.53;1.20;;;;;;;11.61;82.43;98776.56;5329323;28;20016;-82
2022/11/17 15:53:58;;;;;;;1.92;1.35;;;;;;;11.54;81.87;98781.88;5327843;28;20059;-83
2022/11/17 15:56:37;;;;;;;2.67;1.23;;;;;;;11.52;81.58;98790.53;5330018;28;20065;-85
2022/11/17 15:59:09;;;;;;;7.85;4.07;;;;;;;11.54;81.35;98784.66;5330472;28;20046;-94
2022/11/17 16:01:41;;;;;;;2.58;1.50;;;;;;;11.50;81.76;98789.25;5335107;28;20027;-93
2022/11/17 16:04:14;;;;;;;4.90;1.88;;;;;;;11.52;81.30;98800.84;5333647;28;20027;-84
2022/11/17 16:06:46;;;;;;;5.38;2.40;;;;;;;11.55;82.27;98800.16;5328416;28;20402;-86
2022/11/17 16:09:17;;;;;;;3.25;2.33;;;;;;;11.49;81.64;98799.56;5327829;28;20016;-86
2022/11/17 16:11:49;;;;;;;5.03;1.40;;;;;;;11.52;81.60;98798.06;5312918;28;20123;-84
2022/11/17 16:14:20;;;;;;;5.68;1.92;;;;;;;11.54;81.61;98807.66;5328378;28;20467;-87
2022/11/17 16:16:51;;;;;;;3.35;1.92;;;;;;;11.50;81.14;98812.31;5330715;28;20157;-86
2022/11/17 16:19:23;;;;;;;6.53;3.63;;;;;;;11.56;81.49;98812.88;5334753;28;20032;-85
2022/11/17 16:21:54;;;;;;;5.07;1.85;;;;;;;11.54;81.76;98812.41;5338497;27;20027;-83
2022/11/17 16:24:25;;;;;;;4.72;2.47;;;;;;;11.48;81.65;98811.03;5338475;27;20039;-83
2022/11/17 16:26:56;;;;;;;2.00;1.50;;;;;;;11.50;81.25;98812.31;5334905;28;20510;-84
2022/11/17 16:29:28;;;;;;;2.97;1.40;;;;;;;11.48;81.00;98814.63;5333547;28;20028;-85
2022/11/17 16:31:59;;;;;;;3.50;1.30;;;;;;;11.49;81.39;98815.41;5341077;28;20039;-89
2022/11/17 16:34:30;;;;;;;3.00;1.30;;;;;;;11.49;80.76;98821.78;5331128;28;20023;-86
2022/11/17 16:37:02;;;;;;;1.83;0.95;;;;;;;11.46;81.42;98827.22;5328883;28;20027;-87
